sensor_id;sensor_type;location;lat;lon;timestamp;pressure;altitude;pressure_sealevel;temperature;humidity
61026;BME280;46911;32.650;-16.902;2023-05-23T00:00:20;101629.06;;;16.27;54.45
61026;BME280;46911;32.650;-16.902;2023-05-23T00:02:28;101629.94;;;16.28;54.52
61026;BME280;46911;32.650;-16.902;2023-05-23T00:04:29;101649.78;;;16.38;54.95
61026;BME280;46911;32.650;-16.902;2023-05-23T00:06:33;101627.25;;;16.28;55.10
61026;BME280;46911;32.650;-16.902;2023-05-23T00:08:41;101643.78;;;16.46;54.60
61026;BME280;46911;32.650;-16.902;2023-05-23T00:10:42;101645.06;;;16.53;54.26
61026;BME280;46911;32.650;-16.902;2023-05-23T00:12:46;101630.72;;;16.41;53.66
61026;BME280;46911;32.650;-16.902;2023-05-23T00:14:47;101619.56;;;16.34;53.83
61026;BME280;46911;32.650;-16.902;2023-05-23T00:16:48;101643.78;;;16.46;54.13
61026;BME280;46911;32.650;-16.902;2023-05-23T00:18:49;101619.78;;;16.31;54.12
61026;BME280;46911;32.650;-16.902;2023-05-23T00:20:53;101633.16;;;16.33;54.30
61026;BME280;46911;32.650;-16.902;2023-05-23T00:22:54;101643.53;;;16.37;54.06
61026;BME280;46911;32.650;-16.902;2023-05-23T00:25:01;101640.59;;;16.40;53.89
61026;BME280;46911;32.650;-16.902;2023-05-23T00:27:02;101630.66;;;16.30;54.10
61026;BME280;46911;32.650;-16.902;2023-05-23T00:29:05;101619.91;;;16.18;54.29
61026;BME280;46911;32.650;-16.902;2023-05-23T00:31:08;101642.03;;;16.22;54.72
61026;BME280;46911;32.650;-16.902;2023-05-23T00:33:12;101633.47;;;16.17;55.00
61026;BME280;46911;32.650;-16.902;2023-05-23T00:35:14;101617.03;;;16.09;55.58
61026;BME280;46911;32.650;-16.902;2023-05-23T00:37:21;101613.25;;;16.11;55.82
61026;BME280;46911;32.650;-16.902;2023-05-23T00:39:24;101615.47;;;16.17;55.81
61026;BME280;46911;32.650;-16.902;2023-05-23T00:41:28;101624.19;;;16.21;55.96
61026;BME280;46911;32.650;-16.902;2023-05-23T00:43:31;101595.25;;;16.00;55.95
61026;BME280;46911;32.650;-16.902;2023-05-23T00:45:35;101608.38;;;16.05;56.29
61026;BME280;46911;32.650;-16.902;2023-05-23T00:47:42;101600.50;;;16.02;56.40
61026;BME280;46911;32.650;-16.902;2023-05-23T00:49:44;101606.53;;;16.05;56.54
61026;BME280;46911;32.650;-16.902;2023-05-23T00:51:48;101590.75;;;16.01;55.93
61026;BME280;46911;32.650;-16.902;2023-05-23T00:53:54;101578.97;;;15.90;56.13
61026;BME280;46911;32.650;-16.902;2023-05-23T00:55:56;101598.88;;;15.88;56.67
61026;BME280;46911;32.650;-16.902;2023-05-23T00:57:59;101608.44;;;15.92;56.59
61026;BME280;46911;32.650;-16.902;2023-05-23T01:00:05;101607.81;;;15.88;56.24
61026;BME280;46911;32.650;-16.902;2023-05-23T01:02:10;101596.59;;;15.95;55.07
61026;BME280;46911;32.650;-16.902;2023-05-23T01:04:14;101572.09;;;15.86;54.52
61026;BME280;46911;32.650;-16.902;2023-05-23T01:06:16;101576.84;;;15.83;54.48
61026;BME280;46911;32.650;-16.902;2023-05-23T01:08:17;101572.34;;;15.83;54.29
61026;BME280;46911;32.650;-16.902;2023-05-23T01:10:20;101565.38;;;15.81;54.61
61026;BME280;46911;32.650;-16.902;2023-05-23T01:12:32;101563.00;;;15.76;54.88
61026;BME280;46911;32.650;-16.902;2023-05-23T01:14:48;101565.91;;;15.73;54.59
61026;BME280;46911;32.650;-16.902;2023-05-23T01:17:04;101586.91;;;15.81;54.79
61026;BME280;46911;32.650;-16.902;2023-05-23T01:19:23;101595.56;;;15.84;55.08
61026;BME280;46911;32.650;-16.902;2023-05-23T01:21:37;101572.78;;;15.77;55.08
61026;BME280;46911;32.650;-16.902;2023-05-23T01:26:17;101602.66;;;15.85;55.37
61026;BME280;46911;32.650;-16.902;2023-05-23T01:28:27;101607.19;;;15.85;55.45
61026;BME280;46911;32.650;-16.902;2023-05-23T01:30:36;101601.50;;;15.77;55.81
61026;BME280;46911;32.650;-16.902;2023-05-23T01:32:39;101579.69;;;15.68;55.50
61026;BME280;46911;32.650;-16.902;2023-05-23T01:34:43;101585.84;;;15.70;55.25
61026;BME280;46911;32.650;-16.902;2023-05-23T01:36:56;101583.16;;;15.70;55.03
61026;BME280;46911;32.650;-16.902;2023-05-23T01:38:57;101589.38;;;15.71;55.19
61026;BME280;46911;32.650;-16.902;2023-05-23T01:41:01;101579.94;;;15.65;55.58
61026;BME280;46911;32.650;-16.902;2023-05-23T01:43:03;101571.91;;;15.77;55.31
61026;BME280;46911;32.650;-16.902;2023-05-23T01:45:07;101586.53;;;15.85;54.65
61026;BME280;46911;32.650;-16.902;2023-05-23T01:47:09;101594.47;;;15.87;54.69
61026;BME280;46911;32.650;-16.902;2023-05-23T01:49:16;101572.91;;;15.76;54.14
61026;BME280;46911;32.650;-16.902;2023-05-23T01:51:21;101586.66;;;15.84;53.63
61026;BME280;46911;32.650;-16.902;2023-05-23T01:53:26;101576.03;;;15.69;53.30
61026;BME280;46911;32.650;-16.902;2023-05-23T01:55:30;101594.31;;;15.77;53.32
61026;BME280;46911;32.650;-16.902;2023-05-23T01:57:32;101566.88;;;15.61;53.57
61026;BME280;46911;32.650;-16.902;2023-05-23T01:59:33;101556.56;;;15.54;53.96
61026;BME280;46911;32.650;-16.902;2023-05-23T02:01:34;101566.94;;;15.59;54.18
61026;BME280;46911;32.650;-16.902;2023-05-23T02:03:39;101539.00;;;15.37;54.25
61026;BME280;46911;32.650;-16.902;2023-05-23T02:05:40;101546.34;;;15.35;54.19
61026;BME280;46911;32.650;-16.902;2023-05-23T02:07:46;101557.50;;;15.42;54.14
61026;BME280;46911;32.650;-16.902;2023-05-23T02:09:47;101563.34;;;15.47;53.77
61026;BME280;46911;32.650;-16.902;2023-05-23T02:11:51;101539.13;;;15.36;53.59
61026;BME280;46911;32.650;-16.902;2023-05-23T02:13:56;101536.69;;;15.33;53.53
61026;BME280;46911;32.650;-16.902;2023-05-23T02:16:00;101557.41;;;15.55;53.27
61026;BME280;46911;32.650;-16.902;2023-05-23T02:18:03;101532.69;;;15.50;53.32
61026;BME280;46911;32.650;-16.902;2023-05-23T02:20:06;101548.22;;;15.46;53.55
61026;BME280;46911;32.650;-16.902;2023-05-23T02:22:07;101551.03;;;15.45;53.83
61026;BME280;46911;32.650;-16.902;2023-05-23T02:24:11;101538.03;;;15.38;54.00
61026;BME280;46911;32.650;-16.902;2023-05-23T02:26:14;101549.50;;;15.40;54.15
61026;BME280;46911;32.650;-16.902;2023-05-23T02:28:17;101535.28;;;15.27;54.51
61026;BME280;46911;32.650;-16.902;2023-05-23T02:30:23;101536.03;;;15.29;54.83
61026;BME280;46911;32.650;-16.902;2023-05-23T02:32:24;101530.16;;;15.24;55.21
61026;BME280;46911;32.650;-16.902;2023-05-23T02:34:25;101549.13;;;15.34;55.50
61026;BME280;46911;32.650;-16.902;2023-05-23T02:36:26;101547.19;;;15.36;55.71
61026;BME280;46911;32.650;-16.902;2023-05-23T02:38:27;101543.66;;;15.35;56.05
61026;BME280;46911;32.650;-16.902;2023-05-23T02:40:32;101533.78;;;15.23;56.15
61026;BME280;46911;32.650;-16.902;2023-05-23T02:42:38;101518.88;;;15.19;56.57
61026;BME280;46911;32.650;-16.902;2023-05-23T02:44:40;101516.19;;;15.19;56.55
61026;BME280;46911;32.650;-16.902;2023-05-23T02:46:43;101515.09;;;15.21;56.82
61026;BME280;46911;32.650;-16.902;2023-05-23T02:48:47;101531.31;;;15.33;57.32
61026;BME280;46911;32.650;-16.902;2023-05-23T02:50:48;101540.16;;;15.46;57.01
61026;BME280;46911;32.650;-16.902;2023-05-23T02:52:49;101536.25;;;15.50;56.83
61026;BME280;46911;32.650;-16.902;2023-05-23T02:54:50;101535.03;;;15.54;56.82
61026;BME280;46911;32.650;-16.902;2023-05-23T02:56:54;101530.06;;;15.61;56.79
61026;BME280;46911;32.650;-16.902;2023-05-23T02:58:58;101510.00;;;15.54;56.68
61026;BME280;46911;32.650;-16.902;2023-05-23T03:00:59;101527.50;;;15.71;56.77
61026;BME280;46911;32.650;-16.902;2023-05-23T03:03:00;101520.31;;;15.71;56.56
61026;BME280;46911;32.650;-16.902;2023-05-23T03:05:04;101524.34;;;15.77;56.71
61026;BME280;46911;32.650;-16.902;2023-05-23T03:07:10;101505.03;;;15.72;56.69
61026;BME280;46911;32.650;-16.902;2023-05-23T03:09:14;101523.69;;;15.86;56.64
61026;BME280;46911;32.650;-16.902;2023-05-23T03:11:18;101514.00;;;15.84;56.78
61026;BME280;46911;32.650;-16.902;2023-05-23T03:13:21;101508.63;;;15.84;56.85
61026;BME280;46911;32.650;-16.902;2023-05-23T03:15:27;101499.66;;;15.72;56.92
61026;BME280;46911;32.650;-16.902;2023-05-23T03:17:28;101513.16;;;15.83;56.98
61026;BME280;46911;32.650;-16.902;2023-05-23T03:19:30;101491.31;;;15.75;57.28
61026;BME280;46911;32.650;-16.902;2023-05-23T03:21:31;101495.88;;;15.74;57.08
61026;BME280;46911;32.650;-16.902;2023-05-23T03:23:35;101504.41;;;15.68;57.28
61026;BME280;46911;32.650;-16.902;2023-05-23T03:25:44;101514.69;;;15.74;57.50
61026;BME280;46911;32.650;-16.902;2023-05-23T03:27:50;101495.56;;;15.55;57.99
61026;BME280;46911;32.650;-16.902;2023-05-23T03:29:55;101515.84;;;15.59;58.28
61026;BME280;46911;32.650;-16.902;2023-05-23T03:31:58;101513.66;;;15.53;58.33
61026;BME280;46911;32.650;-16.902;2023-05-23T03:34:00;101512.56;;;15.55;58.23
61026;BME280;46911;32.650;-16.902;2023-05-23T03:36:05;101489.00;;;15.35;58.21
61026;BME280;46911;32.650;-16.902;2023-05-23T03:38:13;101500.91;;;15.44;58.08
61026;BME280;46911;32.650;-16.902;2023-05-23T03:40:17;101476.41;;;15.24;58.27
61026;BME280;46911;32.650;-16.902;2023-05-23T03:42:21;101476.63;;;15.21;58.45
61026;BME280;46911;32.650;-16.902;2023-05-23T03:44:22;101482.53;;;15.26;58.45
61026;BME280;46911;32.650;-16.902;2023-05-23T03:46:23;101472.47;;;15.17;58.46
61026;BME280;46911;32.650;-16.902;2023-05-23T03:48:26;101494.75;;;15.30;57.79
61026;BME280;46911;32.650;-16.902;2023-05-23T03:50:31;101479.78;;;15.15;57.74
61026;BME280;46911;32.650;-16.902;2023-05-23T03:52:33;101479.13;;;15.11;57.68
61026;BME280;46911;32.650;-16.902;2023-05-23T03:54:39;101492.50;;;15.13;57.20
61026;BME280;46911;32.650;-16.902;2023-05-23T03:56:43;101490.75;;;15.12;57.32
61026;BME280;46911;32.650;-16.902;2023-05-23T03:58:46;101502.19;;;15.27;56.93
61026;BME280;46911;32.650;-16.902;2023-05-23T04:00:50;101505.72;;;15.27;56.73
61026;BME280;46911;32.650;-16.902;2023-05-23T04:02:52;101504.75;;;15.28;56.68
61026;BME280;46911;32.650;-16.902;2023-05-23T04:04:57;101485.78;;;15.18;56.68
61026;BME280;46911;32.650;-16.902;2023-05-23T04:07:00;101489.44;;;15.17;56.64
61026;BME280;46911;32.650;-16.902;2023-05-23T04:09:05;101485.91;;;15.17;56.55
61026;BME280;46911;32.650;-16.902;2023-05-23T04:11:12;101492.50;;;15.13;56.76
61026;BME280;46911;32.650;-16.902;2023-05-23T04:13:15;101478.28;;;15.11;56.57
61026;BME280;46911;32.650;-16.902;2023-05-23T04:15:18;101481.34;;;15.06;56.51
61026;BME280;46911;32.650;-16.902;2023-05-23T04:17:32;101490.88;;;15.10;56.52
61026;BME280;46911;32.650;-16.902;2023-05-23T04:19:35;101504.94;;;15.14;56.54
61026;BME280;46911;32.650;-16.902;2023-05-23T04:21:36;101488.19;;;15.10;56.44
61026;BME280;46911;32.650;-16.902;2023-05-23T04:23:42;101474.25;;;15.05;56.14
61026;BME280;46911;32.650;-16.902;2023-05-23T04:25:43;101476.94;;;15.05;55.88
61026;BME280;46911;32.650;-16.902;2023-05-23T04:28:16;101502.22;;;15.14;55.89
61026;BME280;46911;32.650;-16.902;2023-05-23T04:30:17;101482.63;;;15.00;55.71
61026;BME280;46911;32.650;-16.902;2023-05-23T04:32:18;101505.69;;;15.16;55.52
61026;BME280;46911;32.650;-16.902;2023-05-23T04:34:22;101506.66;;;15.15;55.61
61026;BME280;46911;32.650;-16.902;2023-05-23T04:36:23;101490.59;;;15.02;55.73
61026;BME280;46911;32.650;-16.902;2023-05-23T04:38:31;101478.25;;;14.99;55.69
61026;BME280;46911;32.650;-16.902;2023-05-23T04:40:33;101506.66;;;15.15;55.28
61026;BME280;46911;32.650;-16.902;2023-05-23T04:43:01;101487.56;;;15.06;55.22
61026;BME280;46911;32.650;-16.902;2023-05-23T04:45:13;101509.84;;;15.20;55.16
61026;BME280;46911;32.650;-16.902;2023-05-23T04:47:26;101490.25;;;15.06;55.28
61026;BME280;46911;32.650;-16.902;2023-05-23T04:49:39;101497.09;;;15.11;55.26
61026;BME280;46911;32.650;-16.902;2023-05-23T04:51:43;101504.03;;;15.26;55.12
61026;BME280;46911;32.650;-16.902;2023-05-23T04:53:51;101479.56;;;15.18;55.19
61026;BME280;46911;32.650;-16.902;2023-05-23T04:55:52;101497.06;;;15.23;55.19
61026;BME280;46911;32.650;-16.902;2023-05-23T04:57:54;101492.88;;;15.19;55.33
61026;BME280;46911;32.650;-16.902;2023-05-23T04:59:59;101488.34;;;15.20;55.04
61026;BME280;46911;32.650;-16.902;2023-05-23T05:02:02;101491.56;;;15.25;54.75
61026;BME280;46911;32.650;-16.902;2023-05-23T05:04:07;101500.13;;;15.30;54.78
61026;BME280;46911;32.650;-16.902;2023-05-23T05:06:08;101500.66;;;15.35;54.72
61026;BME280;46911;32.650;-16.902;2023-05-23T05:08:12;101478.97;;;15.26;54.56
61026;BME280;46911;32.650;-16.902;2023-05-23T05:10:19;101496.09;;;15.25;54.75
61026;BME280;46911;32.650;-16.902;2023-05-23T05:12:23;101493.50;;;15.23;54.99
61026;BME280;46911;32.650;-16.902;2023-05-23T05:14:26;101493.50;;;15.23;55.16
61026;BME280;46911;32.650;-16.902;2023-05-23T05:16:27;101500.06;;;15.19;55.05
61026;BME280;46911;32.650;-16.902;2023-05-23T05:18:31;101487.44;;;15.08;55.27
61026;BME280;46911;32.650;-16.902;2023-05-23T05:20:32;101506.53;;;15.16;55.25
61026;BME280;46911;32.650;-16.902;2023-05-23T05:22:38;101503.44;;;15.10;55.39
61026;BME280;46911;32.650;-16.902;2023-05-23T05:24:48;101480.81;;;15.01;55.40
61026;BME280;46911;32.650;-16.902;2023-05-23T05:26:49;101483.28;;;15.04;55.40
61026;BME280;46911;32.650;-16.902;2023-05-23T05:28:50;101483.03;;;15.07;55.33
61026;BME280;46911;32.650;-16.902;2023-05-23T05:30:51;101497.66;;;15.27;55.35
61026;BME280;46911;32.650;-16.902;2023-05-23T05:32:56;101485.94;;;15.28;55.31
61026;BME280;46911;32.650;-16.902;2023-05-23T05:35:01;101478.97;;;15.26;55.17
61026;BME280;46911;32.650;-16.902;2023-05-23T05:37:02;101501.13;;;15.40;55.08
61026;BME280;46911;32.650;-16.902;2023-05-23T05:39:06;101484.50;;;15.35;54.66
61026;BME280;46911;32.650;-16.902;2023-05-23T05:41:10;101486.72;;;15.42;54.54
61026;BME280;46911;32.650;-16.902;2023-05-23T05:43:16;101498.50;;;15.52;54.37
61026;BME280;46911;32.650;-16.902;2023-05-23T05:45:19;101489.91;;;15.47;54.47
61026;BME280;46911;32.650;-16.902;2023-05-23T05:47:22;101493.69;;;15.44;54.76
61026;BME280;46911;32.650;-16.902;2023-05-23T05:49:25;101498.16;;;15.32;55.22
61026;BME280;46911;32.650;-16.902;2023-05-23T05:51:26;101479.56;;;15.18;55.40
61026;BME280;46911;32.650;-16.902;2023-05-23T05:53:27;101500.34;;;15.27;55.96
61026;BME280;46911;32.650;-16.902;2023-05-23T05:55:28;101488.09;;;15.23;56.01
61026;BME280;46911;32.650;-16.902;2023-05-23T05:57:29;101491.28;;;15.17;55.81
61026;BME280;46911;32.650;-16.902;2023-05-23T05:59:36;101482.53;;;15.26;56.00
61026;BME280;46911;32.650;-16.902;2023-05-23T06:01:41;101490.59;;;15.26;56.23
61026;BME280;46911;32.650;-16.902;2023-05-23T06:03:49;101486.41;;;15.22;56.14
61026;BME280;46911;32.650;-16.902;2023-05-23T06:05:54;101485.94;;;15.28;56.26
61026;BME280;46911;32.650;-16.902;2023-05-23T06:07:57;101491.88;;;15.45;56.29
61026;BME280;46911;32.650;-16.902;2023-05-23T06:09:58;101503.41;;;15.58;56.03
61026;BME280;46911;32.650;-16.902;2023-05-23T06:12:02;101514.44;;;15.78;55.88
61026;BME280;46911;32.650;-16.902;2023-05-23T06:14:03;101522.59;;;15.89;55.61
61026;BME280;46911;32.650;-16.902;2023-05-23T06:16:06;101519.91;;;16.00;55.24
61026;BME280;46911;32.650;-16.902;2023-05-23T06:18:10;101512.81;;;16.22;55.22
61026;BME280;46911;32.650;-16.902;2023-05-23T06:20:12;101501.47;;;16.18;55.09
61026;BME280;46911;32.650;-16.902;2023-05-23T06:22:17;101519.56;;;16.39;55.33
61026;BME280;46911;32.650;-16.902;2023-05-23T06:24:21;101512.47;;;16.38;55.03
61026;BME280;46911;32.650;-16.902;2023-05-23T06:26:22;101500.34;;;16.44;55.33
61026;BME280;46911;32.650;-16.902;2023-05-23T06:28:22;101518.69;;;16.61;55.25
61026;BME280;46911;32.650;-16.902;2023-05-23T06:30:26;101521.75;;;16.68;55.04
61026;BME280;46911;32.650;-16.902;2023-05-23T06:32:31;101517.44;;;16.77;54.71
61026;BME280;46911;32.650;-16.902;2023-05-23T06:34:34;101492.47;;;16.74;54.52
61026;BME280;46911;32.650;-16.902;2023-05-23T06:36:35;101502.00;;;16.90;54.22
61026;BME280;46911;32.650;-16.902;2023-05-23T06:38:38;101506.63;;;16.99;54.08
61026;BME280;46911;32.650;-16.902;2023-05-23T06:40:44;101498.91;;;17.06;54.26
61026;BME280;46911;32.650;-16.902;2023-05-23T06:42:50;101485.44;;;17.06;54.06
61026;BME280;46911;32.650;-16.902;2023-05-23T06:45:13;101510.72;;;17.26;53.51
61026;BME280;46911;32.650;-16.902;2023-05-23T06:47:17;101495.91;;;17.20;53.63
61026;BME280;46911;32.650;-16.902;2023-05-23T06:49:22;101498.41;;;17.12;53.98
61026;BME280;46911;32.650;-16.902;2023-05-23T06:51:23;101498.66;;;17.09;54.71
61026;BME280;46911;32.650;-16.902;2023-05-23T06:53:24;101514.72;;;17.11;55.11
61026;BME280;46911;32.650;-16.902;2023-05-23T06:55:25;101514.09;;;17.07;55.11
61026;BME280;46911;32.650;-16.902;2023-05-23T06:57:29;101525.72;;;17.07;55.61
61026;BME280;46911;32.650;-16.902;2023-05-23T06:59:32;101511.41;;;17.07;55.39
61026;BME280;46911;32.650;-16.902;2023-05-23T07:01:33;101516.66;;;17.09;55.56
61026;BME280;46911;32.650;-16.902;2023-05-23T07:03:39;101523.03;;;17.07;56.11
61026;BME280;46911;32.650;-16.902;2023-05-23T07:05:43;101501.50;;;16.96;56.08
61026;BME280;46911;32.650;-16.902;2023-05-23T07:07:44;101508.09;;;17.03;55.97
61026;BME280;46911;32.650;-16.902;2023-05-23T07:09:45;101520.56;;;17.16;56.03
61026;BME280;46911;32.650;-16.902;2023-05-23T07:11:52;101515.63;;;17.21;55.92
61026;BME280;46911;32.650;-16.902;2023-05-23T07:13:53;101507.03;;;17.27;55.52
61026;BME280;46911;32.650;-16.902;2023-05-23T07:16:18;101490.66;;;17.19;55.12
61026;BME280;46911;32.650;-16.902;2023-05-23T07:18:29;101503.84;;;17.33;54.67
61026;BME280;46911;32.650;-16.902;2023-05-23T07:20:34;101500.66;;;17.28;54.68
61026;BME280;46911;32.650;-16.902;2023-05-23T07:22:44;101502.59;;;17.37;54.97
61026;BME280;46911;32.650;-16.902;2023-05-23T07:24:45;101501.00;;;17.35;54.79
61026;BME280;46911;32.650;-16.902;2023-05-23T07:26:46;101503.06;;;17.43;53.54
61026;BME280;46911;32.650;-16.902;2023-05-23T07:28:53;101509.13;;;17.56;52.90
61026;BME280;46911;32.650;-16.902;2023-05-23T07:30:54;101499.66;;;17.62;52.73
61026;BME280;46911;32.650;-16.902;2023-05-23T07:33:00;101495.69;;;17.66;53.43
61026;BME280;46911;32.650;-16.902;2023-05-23T07:35:01;101516.09;;;17.80;53.35
61026;BME280;46911;32.650;-16.902;2023-05-23T07:37:05;101509.31;;;17.85;52.74
61026;BME280;46911;32.650;-16.902;2023-05-23T07:39:13;101493.78;;;17.78;52.55
61026;BME280;46911;32.650;-16.902;2023-05-23T07:41:15;101489.78;;;17.93;53.00
61026;BME280;46911;32.650;-16.902;2023-05-23T07:43:18;101505.75;;;17.85;53.62
61026;BME280;46911;32.650;-16.902;2023-05-23T07:45:24;101495.81;;;17.64;54.47
61026;BME280;46911;32.650;-16.902;2023-05-23T07:47:28;101512.94;;;17.74;54.88
61026;BME280;46911;32.650;-16.902;2023-05-23T07:49:32;101504.19;;;17.61;55.62
61026;BME280;46911;32.650;-16.902;2023-05-23T07:51:33;101507.75;;;17.62;55.50
61026;BME280;46911;32.650;-16.902;2023-05-23T07:53:37;101532.69;;;17.75;55.53
61026;BME280;46911;32.650;-16.902;2023-05-23T07:55:44;101529.00;;;17.76;55.68
61026;BME280;46911;32.650;-16.902;2023-05-23T07:57:47;101531.75;;;17.86;55.58
61026;BME280;46911;32.650;-16.902;2023-05-23T07:59:47;101509.38;;;17.74;55.36
61026;BME280;46911;32.650;-16.902;2023-05-23T08:01:48;101518.91;;;17.78;55.23
61026;BME280;46911;32.650;-16.902;2023-05-23T08:03:52;101519.00;;;17.88;55.15
61026;BME280;46911;32.650;-16.902;2023-05-23T08:06:02;101524.13;;;17.91;55.38
61026;BME280;46911;32.650;-16.902;2023-05-23T08:08:06;101521.19;;;17.94;55.14
61026;BME280;46911;32.650;-16.902;2023-05-23T08:10:07;101514.81;;;17.95;54.97
61026;BME280;46911;32.650;-16.902;2023-05-23T08:12:12;101518.66;;;18.02;54.90
61026;BME280;46911;32.650;-16.902;2023-05-23T08:14:14;101531.97;;;18.15;54.67
61026;BME280;46911;32.650;-16.902;2023-05-23T08:16:41;101537.41;;;18.25;54.25
61026;BME280;46911;32.650;-16.902;2023-05-23T08:18:50;101530.94;;;18.37;53.31
61026;BME280;46911;32.650;-16.902;2023-05-23T08:20:52;101536.41;;;18.57;52.88
61026;BME280;46911;32.650;-16.902;2023-05-23T08:22:53;101516.50;;;18.58;52.71
61026;BME280;46911;32.650;-16.902;2023-05-23T08:25:02;101526.69;;;18.85;52.29
61026;BME280;46911;32.650;-16.902;2023-05-23T08:27:04;101525.47;;;19.09;52.69
61026;BME280;46911;32.650;-16.902;2023-05-23T08:29:07;101535.72;;;19.25;52.32
61026;BME280;46911;32.650;-16.902;2023-05-23T08:31:15;101520.66;;;19.32;51.57
61026;BME280;46911;32.650;-16.902;2023-05-23T08:33:16;101543.69;;;19.56;51.07
61026;BME280;46911;32.650;-16.902;2023-05-23T08:35:20;101532.28;;;19.72;51.27
61026;BME280;46911;32.650;-16.902;2023-05-23T08:37:21;101516.09;;;19.82;49.54
61026;BME280;46911;32.650;-16.902;2023-05-23T08:39:22;101520.75;;;19.89;49.66
61026;BME280;46911;32.650;-16.902;2023-05-23T08:41:34;101536.38;;;20.05;49.64
61026;BME280;46911;32.650;-16.902;2023-05-23T08:43:39;101540.75;;;20.26;49.01
61026;BME280;46911;32.650;-16.902;2023-05-23T08:45:45;101536.88;;;20.38;49.33
61026;BME280;46911;32.650;-16.902;2023-05-23T08:47:51;101526.38;;;20.53;49.62
61026;BME280;46911;32.650;-16.902;2023-05-23T08:49:54;101551.69;;;20.82;49.23
61026;BME280;46911;32.650;-16.902;2023-05-23T08:52:02;101542.25;;;20.86;48.78
61026;BME280;46911;32.650;-16.902;2023-05-23T08:54:10;101546.13;;;21.01;48.94
61026;BME280;46911;32.650;-16.902;2023-05-23T08:56:15;101548.56;;;21.22;48.31
61026;BME280;46911;32.650;-16.902;2023-05-23T08:58:20;101545.03;;;20.94;47.50
61026;BME280;46911;32.650;-16.902;2023-05-23T09:00:30;101547.13;;;21.00;47.76
61026;BME280;46911;32.650;-16.902;2023-05-23T09:02:33;101527.41;;;20.80;48.72
61026;BME280;46911;32.650;-16.902;2023-05-23T09:04:49;101541.16;;;20.97;49.08
61026;BME280;46911;32.650;-16.902;2023-05-23T09:06:59;101556.66;;;21.04;49.11
61026;BME280;46911;32.650;-16.902;2023-05-23T09:09:04;101537.22;;;21.09;48.91
61026;BME280;46911;32.650;-16.902;2023-05-23T09:11:05;101531.63;;;20.93;49.31
61026;BME280;46911;32.650;-16.902;2023-05-23T09:13:14;101555.13;;;21.20;49.36
61026;BME280;46911;32.650;-16.902;2023-05-23T09:15:19;101536.44;;;21.35;48.30
61026;BME280;46911;32.650;-16.902;2023-05-23T09:17:24;101547.25;;;20.81;49.27
61026;BME280;46911;32.650;-16.902;2023-05-23T09:19:28;101554.88;;;20.95;48.84
61026;BME280;46911;32.650;-16.902;2023-05-23T09:21:41;101554.28;;;20.73;49.50
61026;BME280;46911;32.650;-16.902;2023-05-23T09:23:49;101550.50;;;20.84;48.90
61026;BME280;46911;32.650;-16.902;2023-05-23T09:25:53;101558.53;;;21.04;48.49
61026;BME280;46911;32.650;-16.902;2023-05-23T09:27:57;101532.44;;;21.21;48.37
61026;BME280;46911;32.650;-16.902;2023-05-23T09:30:11;101555.56;;;21.61;47.29
61026;BME280;46911;32.650;-16.902;2023-05-23T09:32:16;101532.25;;;21.40;47.44
61026;BME280;46911;32.650;-16.902;2023-05-23T09:34:17;101547.09;;;21.64;47.04
61026;BME280;46911;32.650;-16.902;2023-05-23T09:36:21;101539.09;;;21.63;46.65
61026;BME280;46911;32.650;-16.902;2023-05-23T09:38:27;101551.75;;;21.72;47.24
61026;BME280;46911;32.650;-16.902;2023-05-23T09:40:31;101546.28;;;21.90;47.03
61026;BME280;46911;32.650;-16.902;2023-05-23T09:42:46;101531.25;;;21.78;46.51
61026;BME280;46911;32.650;-16.902;2023-05-23T09:44:48;101521.66;;;21.65;46.57
61026;BME280;46911;32.650;-16.902;2023-05-23T09:46:52;101535.53;;;21.44;47.94
61026;BME280;46911;32.650;-16.902;2023-05-23T09:48:56;101528.19;;;20.72;50.45
61026;BME280;46911;32.650;-16.902;2023-05-23T09:51:11;101547.22;;;20.53;51.79
61026;BME280;46911;32.650;-16.902;2023-05-23T09:53:16;101531.19;;;20.32;52.01
61026;BME280;46911;32.650;-16.902;2023-05-23T09:55:21;101551.75;;;20.24;52.64
61026;BME280;46911;32.650;-16.902;2023-05-23T09:57:24;101562.91;;;20.12;53.39
61026;BME280;46911;32.650;-16.902;2023-05-23T09:59:27;101559.88;;;20.15;53.13
61026;BME280;46911;32.650;-16.902;2023-05-23T10:01:33;101543.09;;;20.11;53.46
61026;BME280;46911;32.650;-16.902;2023-05-23T10:03:51;101554.72;;;20.31;53.13
61026;BME280;46911;32.650;-16.902;2023-05-23T10:06:00;101546.28;;;20.34;53.28
61026;BME280;46911;32.650;-16.902;2023-05-23T10:08:24;101557.47;;;20.59;52.88
61026;BME280;46911;32.650;-16.902;2023-05-23T10:10:32;101560.72;;;20.63;53.08
61026;BME280;46911;32.650;-16.902;2023-05-23T10:12:41;101559.91;;;20.90;52.11
61026;BME280;46911;32.650;-16.902;2023-05-23T10:14:48;101555.22;;;21.10;52.49
61026;BME280;46911;32.650;-16.902;2023-05-23T10:20:15;101561.66;;;21.63;50.12
61026;BME280;46911;32.650;-16.902;2023-05-23T10:21:59;101570.13;;;21.60;49.46
61026;BME280;46911;32.650;-16.902;2023-05-23T10:24:03;101567.47;;;21.86;48.16
61026;BME280;46911;32.650;-16.902;2023-05-23T10:26:06;101569.97;;;22.32;47.55
61026;BME280;46911;32.650;-16.902;2023-05-23T10:28:08;101551.72;;;22.85;46.61
61026;BME280;46911;32.650;-16.902;2023-05-23T10:30:12;101525.84;;;23.32;45.25
61026;BME280;46911;32.650;-16.902;2023-05-23T10:32:17;101563.44;;;23.78;43.80
61026;BME280;46911;32.650;-16.902;2023-05-23T10:36:52;101559.72;;;23.96;43.16
61026;BME280;46911;32.650;-16.902;2023-05-23T10:41:17;101562.53;;;24.35;41.77
61026;BME280;46911;32.650;-16.902;2023-05-23T10:43:39;101577.25;;;23.68;43.34
61026;BME280;46911;32.650;-16.902;2023-05-23T10:45:42;101554.78;;;23.42;44.53